sensor_id;sensor_type;location;lat;lon;timestamp;pressure;altitude;pressure_sealevel;temperature;humidity
36600;BME280;35385;55.668;37.508;2023-02-17T00:00:23;100039.03;;;-5.46;100.00
36600;BME280;35385;55.668;37.508;2023-02-17T00:01:25;100057.25;;;-5.45;100.00
36600;BME280;35385;55.668;37.508;2023-02-17T00:02:25;100054.88;;;-5.63;100.00
36600;BME280;35385;55.668;37.508;2023-02-17T00:03:26;100059.09;;;-5.53;100.00
36600;BME280;35385;55.668;37.508;2023-02-17T00:04:28;100023.75;;;-5.75;100.00
36600;BME280;35385;55.668;37.508;2023-02-17T00:05:29;99997.06;;;-5.91;100.00
36600;BME280;35385;55.668;37.508;2023-02-17T00:06:30;100065.06;;;-5.46;100.00
36600;BME280;35385;55.668;37.508;2023-02-17T00:07:32;100059.13;;;-5.56;100.00
36600;BME280;35385;55.668;37.508;2023-02-17T00:08:33;100067.84;;;-5.60;100.00
36600;BME280;35385;55.668;37.508;2023-02-17T00:09:33;100050.59;;;-5.67;100.00
36600;BME280;35385;55.668;37.508;2023-02-17T00:10:35;100060.88;;;-5.58;100.00
36600;BME280;35385;55.668;37.508;2023-02-17T00:11:36;100059.25;;;-5.68;100.00
36600;BME280;35385;55.668;37.508;2023-02-17T00:12:36;100057.47;;;-5.63;100.00
36600;BME280;35385;55.668;37.508;2023-02-17T00:13:37;99948.91;;;-6.27;100.00
36600;BME280;35385;55.668;37.508;2023-02-17T00:14:38;99998.81;;;-5.91;100.00
36600;BME280;35385;55.668;37.508;2023-02-17T00:15:39;100031.53;;;-5.72;100.00
36600;BME280;35385;55.668;37.508;2023-02-17T00:16:40;100048.75;;;-5.59;100.00
36600;BME280;35385;55.668;37.508;2023-02-17T00:17:41;100049.75;;;-5.71;100.00
36600;BME280;35385;55.668;37.508;2023-02-17T00:18:41;100060.00;;;-5.57;100.00
36600;BME280;35385;55.668;37.508;2023-02-17T00:19:42;100051.34;;;-5.57;100.00
36600;BME280;35385;55.668;37.508;2023-02-17T00:20:43;100029.66;;;-5.61;100.00
36600;BME280;35385;55.668;37.508;2023-02-17T00:21:43;100054.69;;;-5.48;100.00
36600;BME280;35385;55.668;37.508;2023-02-17T00:22:44;100037.41;;;-5.52;100.00
36600;BME280;35385;55.668;37.508;2023-02-17T00:23:46;100072.78;;;-5.34;100.00
36600;BME280;35385;55.668;37.508;2023-02-17T00:24:46;100055.25;;;-5.21;100.00
36600;BME280;35385;55.668;37.508;2023-02-17T00:25:47;100060.31;;;-5.09;100.00
36600;BME280;35385;55.668;37.508;2023-02-17T00:26:48;100066.72;;;-5.36;100.00
36600;BME280;35385;55.668;37.508;2023-02-17T00:27:48;99998.03;;;-5.98;100.00
36600;BME280;35385;55.668;37.508;2023-02-17T00:28:49;100017.09;;;-5.96;100.00
36600;BME280;35385;55.668;37.508;2023-02-17T00:29:50;100055.88;;;-5.76;100.00
36600;BME280;35385;55.668;37.508;2023-02-17T00:30:50;100048.09;;;-5.78;100.00
36600;BME280;35385;55.668;37.508;2023-02-17T00:31:52;100058.34;;;-5.64;100.00
36600;BME280;35385;55.668;37.508;2023-02-17T00:32:53;100050.47;;;-5.58;100.00
36600;BME280;35385;55.668;37.508;2023-02-17T00:33:54;100047.84;;;-5.56;100.00
36600;BME280;35385;55.668;37.508;2023-02-17T00:34:55;100061.44;;;-5.33;100.00
36600;BME280;35385;55.668;37.508;2023-02-17T00:35:57;100056.22;;;-5.31;100.00
36600;BME280;35385;55.668;37.508;2023-02-17T00:36:58;100044.22;;;-5.45;100.00
36600;BME280;35385;55.668;37.508;2023-02-17T00:37:58;99998.44;;;-5.61;100.00
36600;BME280;35385;55.668;37.508;2023-02-17T00:38:59;100043.25;;;-5.35;100.00
36600;BME280;35385;55.668;37.508;2023-02-17T00:39:59;100049.91;;;-5.11;100.00
36600;BME280;35385;55.668;37.508;2023-02-17T00:41:00;100028.25;;;-5.16;100.00
36600;BME280;35385;55.668;37.508;2023-02-17T00:42:00;100041.09;;;-5.02;100.00
36600;BME280;35385;55.668;37.508;2023-02-17T00:43:01;100049.53;;;-4.85;100.00
36600;BME280;35385;55.668;37.508;2023-02-17T00:44:02;100044.47;;;-4.94;100.00
36600;BME280;35385;55.668;37.508;2023-02-17T00:45:03;100035.88;;;-5.04;100.00
36600;BME280;35385;55.668;37.508;2023-02-17T00:46:04;100034.22;;;-5.06;100.00
36600;BME280;35385;55.668;37.508;2023-02-17T00:47:05;99972.22;;;-5.46;100.00
36600;BME280;35385;55.668;37.508;2023-02-17T00:48:05;100032.69;;;-5.22;100.00
36600;BME280;35385;55.668;37.508;2023-02-17T00:49:06;100010.16;;;-5.26;100.00
36600;BME280;35385;55.668;37.508;2023-02-17T00:50:07;99880.09;;;-5.97;100.00
36600;BME280;35385;55.668;37.508;2023-02-17T00:51:08;99997.97;;;-5.23;100.00
36600;BME280;35385;55.668;37.508;2023-02-17T00:52:08;100039.31;;;-5.00;100.00
36600;BME280;35385;55.668;37.508;2023-02-17T00:53:09;100039.28;;;-4.95;100.00
36600;BME280;35385;55.668;37.508;2023-02-17T00:54:10;99994.75;;;-5.42;100.00
36600;BME280;35385;55.668;37.508;2023-02-17T00:55:10;100041.34;;;-5.20;100.00
36600;BME280;35385;55.668;37.508;2023-02-17T00:56:11;100030.06;;;-5.21;100.00
36600;BME280;35385;55.668;37.508;2023-02-17T00:57:12;100015.38;;;-5.26;100.00
36600;BME280;35385;55.668;37.508;2023-02-17T00:58:13;100036.06;;;-5.17;100.00
36600;BME280;35385;55.668;37.508;2023-02-17T00:59:13;100023.06;;;-5.19;100.00
36600;BME280;35385;55.668;37.508;2023-02-17T01:00:14;100030.88;;;-5.17;100.00
36600;BME280;35385;55.668;37.508;2023-02-17T01:01:15;100023.19;;;-5.26;100.00
36600;BME280;35385;55.668;37.508;2023-02-17T01:02:16;100028.53;;;-5.37;100.00
36600;BME280;35385;55.668;37.508;2023-02-17T01:03:17;100016.59;;;-5.55;100.00
36600;BME280;35385;55.668;37.508;2023-02-17T01:04:18;100032.16;;;-5.49;100.00
36600;BME280;35385;55.668;37.508;2023-02-17T01:05:18;100033.81;;;-5.45;100.00
36600;BME280;35385;55.668;37.508;2023-02-17T01:06:25;100026.03;;;-5.48;100.00
36600;BME280;35385;55.668;37.508;2023-02-17T01:07:26;100033.72;;;-5.36;100.00
36600;BME280;35385;55.668;37.508;2023-02-17T01:08:26;100032.75;;;-5.28;100.00
36600;BME280;35385;55.668;37.508;2023-02-17T01:09:27;100037.09;;;-5.29;100.00
36600;BME280;35385;55.668;37.508;2023-02-17T01:10:27;100030.16;;;-5.28;100.00
36600;BME280;35385;55.668;37.508;2023-02-17T01:11:31;100029.44;;;-5.40;100.00
36600;BME280;35385;55.668;37.508;2023-02-17T01:12:31;100021.44;;;-5.26;100.00
36600;BME280;35385;55.668;37.508;2023-02-17T01:13:32;100042.06;;;-5.09;100.00
36600;BME280;35385;55.668;37.508;2023-02-17T01:14:32;99979.81;;;-5.30;100.00
36600;BME280;35385;55.668;37.508;2023-02-17T01:15:40;100037.59;;;-5.01;100.00
36600;BME280;35385;55.668;37.508;2023-02-17T01:16:46;100031.56;;;-5.05;100.00
36600;BME280;35385;55.668;37.508;2023-02-17T01:17:47;100025.63;;;-5.14;100.00
36600;BME280;35385;55.668;37.508;2023-02-17T01:18:48;100032.31;;;-4.95;100.00
36600;BME280;35385;55.668;37.508;2023-02-17T01:19:49;100028.72;;;-4.88;100.00
36600;BME280;35385;55.668;37.508;2023-02-17T01:20:50;100038.28;;;-4.88;100.00
36600;BME280;35385;55.668;37.508;2023-02-17T01:21:50;100033.09;;;-4.90;100.00
36600;BME280;35385;55.668;37.508;2023-02-17T01:22:51;100037.34;;;-4.83;100.00
36600;BME280;35385;55.668;37.508;2023-02-17T01:23:54;100033.09;;;-4.90;100.00
36600;BME280;35385;55.668;37.508;2023-02-17T01:24:55;100030.38;;;-4.81;100.00
36600;BME280;35385;55.668;37.508;2023-02-17T01:25:56;100028.50;;;-4.73;100.00
36600;BME280;35385;55.668;37.508;2023-02-17T01:26:56;100026.88;;;-4.80;100.00
36600;BME280;35385;55.668;37.508;2023-02-17T01:27:57;100026.84;;;-4.77;100.00
36600;BME280;35385;55.668;37.508;2023-02-17T01:28:57;100029.63;;;-4.90;100.00
36600;BME280;35385;55.668;37.508;2023-02-17T01:29:58;99968.66;;;-5.39;100.00
36600;BME280;35385;55.668;37.508;2023-02-17T01:31:05;100023.78;;;-5.06;100.00
36600;BME280;35385;55.668;37.508;2023-02-17T01:32:05;100018.69;;;-5.15;100.00
36600;BME280;35385;55.668;37.508;2023-02-17T01:33:06;99991.22;;;-5.38;100.00
36600;BME280;35385;55.668;37.508;2023-02-17T01:34:06;100028.13;;;-5.07;100.00
36600;BME280;35385;55.668;37.508;2023-02-17T01:35:07;100024.69;;;-5.07;100.00
36600;BME280;35385;55.668;37.508;2023-02-17T01:36:11;100020.25;;;-5.04;100.00
36600;BME280;35385;55.668;37.508;2023-02-17T01:37:11;100035.69;;;-4.88;100.00
36600;BME280;35385;55.668;37.508;2023-02-17T01:38:12;100021.03;;;-4.95;100.00
36600;BME280;35385;55.668;37.508;2023-02-17T01:39:14;100015.16;;;-5.11;100.00
36600;BME280;35385;55.668;37.508;2023-02-17T01:40:16;99972.09;;;-5.35;100.00
36600;BME280;35385;55.668;37.508;2023-02-17T01:41:19;100030.59;;;-4.97;100.00
36600;BME280;35385;55.668;37.508;2023-02-17T01:42:20;99994.41;;;-5.17;100.00
36600;BME280;35385;55.668;37.508;2023-02-17T01:43:21;99961.78;;;-5.44;100.00
36600;BME280;35385;55.668;37.508;2023-02-17T01:44:24;99971.53;;;-5.61;100.00
36600;BME280;35385;55.668;37.508;2023-02-17T01:45:33;100027.66;;;-5.38;100.00
36600;BME280;35385;55.668;37.508;2023-02-17T01:46:35;100015.53;;;-5.39;100.00
36600;BME280;35385;55.668;37.508;2023-02-17T01:47:36;100031.00;;;-5.26;100.00
36600;BME280;35385;55.668;37.508;2023-02-17T01:48:41;100030.06;;;-5.19;100.00
36600;BME280;35385;55.668;37.508;2023-02-17T01:49:43;100042.91;;;-5.07;100.00
36600;BME280;35385;55.668;37.508;2023-02-17T01:51:12;100028.88;;;-4.97;100.00
36600;BME280;35385;55.668;37.508;2023-02-17T01:52:20;100021.94;;;-4.98;100.00
36600;BME280;35385;55.668;37.508;2023-02-17T01:53:27;100023.72;;;-5.03;100.00
36600;BME280;35385;55.668;37.508;2023-02-17T01:54:46;100032.22;;;-4.89;100.00
36600;BME280;35385;55.668;37.508;2023-02-17T01:55:49;99976.22;;;-5.20;100.00
36600;BME280;35385;55.668;37.508;2023-02-17T01:56:50;100031.50;;;-5.00;100.00
36600;BME280;35385;55.668;37.508;2023-02-17T01:57:53;100031.53;;;-5.03;100.00
36600;BME280;35385;55.668;37.508;2023-02-17T01:59:00;100018.72;;;-5.18;100.00
36600;BME280;35385;55.668;37.508;2023-02-17T02:00:04;99965.34;;;-5.50;100.00
36600;BME280;35385;55.668;37.508;2023-02-17T02:01:06;100032.59;;;-5.16;100.00
36600;BME280;35385;55.668;37.508;2023-02-17T02:02:07;100014.50;;;-5.25;100.00
36600;BME280;35385;55.668;37.508;2023-02-17T02:03:09;100032.59;;;-5.16;100.00
36600;BME280;35385;55.668;37.508;2023-02-17T02:04:13;100039.53;;;-5.15;100.00
36600;BME280;35385;55.668;37.508;2023-02-17T02:05:15;100036.81;;;-5.06;100.00
36600;BME280;35385;55.668;37.508;2023-02-17T02:06:23;99933.53;;;-5.73;100.00
36600;BME280;35385;55.668;37.508;2023-02-17T02:07:31;100020.31;;;-5.05;100.00
36600;BME280;35385;55.668;37.508;2023-02-17T02:08:44;100042.69;;;-4.92;100.00
36600;BME280;35385;55.668;37.508;2023-02-17T02:09:51;100025.47;;;-5.04;100.00
36600;BME280;35385;55.668;37.508;2023-02-17T02:10:53;100002.22;;;-5.19;100.00
36600;BME280;35385;55.668;37.508;2023-02-17T02:11:54;100035.06;;;-5.06;100.00
36600;BME280;35385;55.668;37.508;2023-02-17T02:12:54;100034.22;;;-5.06;100.00
36600;BME280;35385;55.668;37.508;2023-02-17T02:13:56;100032.56;;;-5.13;100.00
36600;BME280;35385;55.668;37.508;2023-02-17T02:15:00;100030.81;;;-5.13;100.00
36600;BME280;35385;55.668;37.508;2023-02-17T02:24:43;100046.41;;;-5.08;100.00
36600;BME280;35385;55.668;37.508;2023-02-17T02:27:27;100044.75;;;-5.15;100.00
36600;BME280;35385;55.668;37.508;2023-02-17T02:31:34;100029.44;;;-5.40;100.00
36600;BME280;35385;55.668;37.508;2023-02-17T02:32:53;100036.44;;;-5.45;100.00
36600;BME280;35385;55.668;37.508;2023-02-17T02:33:59;99949.50;;;-6.00;100.00
36600;BME280;35385;55.668;37.508;2023-02-17T02:35:25;100029.47;;;-5.43;100.00
36600;BME280;35385;55.668;37.508;2023-02-17T02:36:55;100026.88;;;-5.46;100.00
36600;BME280;35385;55.668;37.508;2023-02-17T02:38:20;100032.91;;;-5.41;100.00
36600;BME280;35385;55.668;37.508;2023-02-17T02:39:23;99975.16;;;-5.73;100.00
36600;BME280;35385;55.668;37.508;2023-02-17T02:40:30;99974.38;;;-5.78;100.00
36600;BME280;35385;55.668;37.508;2023-02-17T02:41:35;100026.03;;;-5.48;100.00
36600;BME280;35385;55.668;37.508;2023-02-17T02:42:38;99969.09;;;-5.75;100.00
36600;BME280;35385;55.668;37.508;2023-02-17T02:43:40;100025.13;;;-5.42;100.00
36600;BME280;35385;55.668;37.508;2023-02-17T02:44:41;100000.06;;;-5.51;100.00
36600;BME280;35385;55.668;37.508;2023-02-17T02:45:42;100036.28;;;-5.32;100.00
36600;BME280;35385;55.668;37.508;2023-02-17T02:46:43;100023.31;;;-5.36;100.00
36600;BME280;35385;55.668;37.508;2023-02-17T02:48:47;100024.00;;;-5.23;100.00
36600;BME280;35385;55.668;37.508;2023-02-17T02:49:48;99975.75;;;-5.50;100.00
36600;BME280;35385;55.668;37.508;2023-02-17T02:52:16;100025.75;;;-5.23;100.00
36600;BME280;35385;55.668;37.508;2023-02-17T02:53:48;99968.88;;;-5.54;100.00
36600;BME280;35385;55.668;37.508;2023-02-17T02:56:14;100034.31;;;-5.15;100.00
36600;BME280;35385;55.668;37.508;2023-02-17T02:59:17;100037.56;;;-4.98;100.00
36600;BME280;35385;55.668;37.508;2023-02-17T03:02:35;100045.25;;;-4.89;100.00
36600;BME280;35385;55.668;37.508;2023-02-17T03:05:12;100042.53;;;-4.80;100.00
36600;BME280;35385;55.668;37.508;2023-02-17T03:06:22;99990.91;;;-5.16;100.00
36600;BME280;35385;55.668;37.508;2023-02-17T03:07:53;100046.03;;;-4.82;100.00
36600;BME280;35385;55.668;37.508;2023-02-17T03:09:03;100036.44;;;-4.79;100.00
36600;BME280;35385;55.668;37.508;2023-02-17T03:10:06;100027.72;;;-4.78;100.00
36600;BME280;35385;55.668;37.508;2023-02-17T03:11:06;100020.94;;;-4.89;100.00
36600;BME280;35385;55.668;37.508;2023-02-17T03:12:07;100031.28;;;-4.85;100.00
36600;BME280;35385;55.668;37.508;2023-02-17T03:13:08;100025.44;;;-5.02;100.00
36600;BME280;35385;55.668;37.508;2023-02-17T03:14:12;100016.94;;;-5.13;100.00
36600;BME280;35385;55.668;37.508;2023-02-17T03:15:39;100034.06;;;-4.97;100.00
36600;BME280;35385;55.668;37.508;2023-02-17T03:16:41;100031.56;;;-5.05;100.00
36600;BME280;35385;55.668;37.508;2023-02-17T03:17:42;100019.53;;;-5.12;100.00
36600;BME280;35385;55.668;37.508;2023-02-17T03:18:42;99964.28;;;-5.35;100.00
36600;BME280;35385;55.668;37.508;2023-02-17T03:19:43;100028.03;;;-4.99;100.00
36600;BME280;35385;55.668;37.508;2023-02-17T03:20:57;100023.66;;;-4.97;100.00
36600;BME280;35385;55.668;37.508;2023-02-17T03:22:10;100025.41;;;-4.99;100.00
36600;BME280;35385;55.668;37.508;2023-02-17T03:23:13;100033.38;;;-5.08;100.00
36600;BME280;35385;55.668;37.508;2023-02-17T03:24:13;100004.09;;;-5.28;100.00
36600;BME280;35385;55.668;37.508;2023-02-17T03:25:15;100036.91;;;-5.15;100.00
36600;BME280;35385;55.668;37.508;2023-02-17T03:26:16;100029.06;;;-5.12;100.00
36600;BME280;35385;55.668;37.508;2023-02-17T03:27:16;100029.22;;;-5.23;100.00
36600;BME280;35385;55.668;37.508;2023-02-17T03:28:17;100025.78;;;-5.26;100.00
36600;BME280;35385;55.668;37.508;2023-02-17T03:29:18;100019.78;;;-5.31;100.00
36600;BME280;35385;55.668;37.508;2023-02-17T03:30:18;100011.28;;;-5.47;100.00
36600;BME280;35385;55.668;37.508;2023-02-17T03:31:19;100019.91;;;-5.42;100.00
36600;BME280;35385;55.668;37.508;2023-02-17T03:32:20;100019.03;;;-5.43;100.00
36600;BME280;35385;55.668;37.508;2023-02-17T03:33:20;100028.75;;;-5.54;100.00
36600;BME280;35385;55.668;37.508;2023-02-17T03:34:21;99962.28;;;-5.82;100.00
36600;BME280;35385;55.668;37.508;2023-02-17T03:35:21;100017.41;;;-5.50;100.00
36600;BME280;35385;55.668;37.508;2023-02-17T03:36:22;100007.94;;;-5.57;100.00
36600;BME280;35385;55.668;37.508;2023-02-17T03:37:23;100006.31;;;-5.64;100.00
36600;BME280;35385;55.668;37.508;2023-02-17T03:38:23;100019.16;;;-5.50;100.00
36600;BME280;35385;55.668;37.508;2023-02-17T03:39:24;100010.53;;;-5.57;100.00
36600;BME280;35385;55.668;37.508;2023-02-17T03:40:25;99936.56;;;-6.07;100.00
36600;BME280;35385;55.668;37.508;2023-02-17T03:41:25;100006.38;;;-5.70;100.00
36600;BME280;35385;55.668;37.508;2023-02-17T03:42:26;100004.59;;;-5.66;100.00
36600;BME280;35385;55.668;37.508;2023-02-17T03:43:26;100016.78;;;-5.70;100.00
36600;BME280;35385;55.668;37.508;2023-02-17T03:44:27;100026.28;;;-5.67;100.00
36600;BME280;35385;55.668;37.508;2023-02-17T03:45:27;99984.16;;;-5.97;100.00
36600;BME280;35385;55.668;37.508;2023-02-17T03:46:28;100035.00;;;-5.70;100.00
36600;BME280;35385;55.668;37.508;2023-02-17T03:47:28;100015.91;;;-5.71;100.00
36600;BME280;35385;55.668;37.508;2023-02-17T03:48:29;100043.63;;;-5.66;100.00
36600;BME280;35385;55.668;37.508;2023-02-17T03:49:30;100025.44;;;-5.68;100.00
36600;BME280;35385;55.668;37.508;2023-02-17T03:50:30;100026.19;;;-5.61;100.00
36600;BME280;35385;55.668;37.508;2023-02-17T03:51:31;100013.28;;;-5.69;100.00
36600;BME280;35385;55.668;37.508;2023-02-17T03:52:31;100014.16;;;-5.70;100.00
36600;BME280;35385;55.668;37.508;2023-02-17T03:53:32;100024.53;;;-5.64;100.00
36600;BME280;35385;55.668;37.508;2023-02-17T03:54:32;100030.63;;;-5.66;100.00
36600;BME280;35385;55.668;37.508;2023-02-17T03:55:33;100027.22;;;-5.73;100.00
36600;BME280;35385;55.668;37.508;2023-02-17T03:56:33;100022.97;;;-5.80;100.00
36600;BME280;35385;55.668;37.508;2023-02-17T03:57:34;100024.72;;;-5.81;100.00
36600;BME280;35385;55.668;37.508;2023-02-17T03:58:35;100020.38;;;-5.80;100.00
36600;BME280;35385;55.668;37.508;2023-02-17T03:59:36;100012.50;;;-5.76;100.00
36600;BME280;35385;55.668;37.508;2023-02-17T04:00:37;99967.84;;;-6.13;100.00
36600;BME280;35385;55.668;37.508;2023-02-17T04:01:37;100019.59;;;-5.88;100.00
36600;BME280;35385;55.668;37.508;2023-02-17T04:02:38;100019.63;;;-5.91;100.00
36600;BME280;35385;55.668;37.508;2023-02-17T04:03:39;100022.22;;;-5.90;100.00
36600;BME280;35385;55.668;37.508;2023-02-17T04:04:39;100025.63;;;-5.88;100.00
36600;BME280;35385;55.668;37.508;2023-02-17T04:05:43;100034.28;;;-5.86;100.00
36600;BME280;35385;55.668;37.508;2023-02-17T04:06:43;100028.19;;;-5.83;100.00
36600;BME280;35385;55.668;37.508;2023-02-17T04:07:44;100024.72;;;-5.82;100.00
36600;BME280;35385;55.668;37.508;2023-02-17T04:08:45;100019.53;;;-5.85;100.00
36600;BME280;35385;55.668;37.508;2023-02-17T04:09:45;100029.19;;;-5.92;100.00
36600;BME280;35385;55.668;37.508;2023-02-17T04:10:50;99998.97;;;-6.05;100.00
36600;BME280;35385;55.668;37.508;2023-02-17T04:11:51;99942.13;;;-6.40;100.00
36600;BME280;35385;55.668;37.508;2023-02-17T04:12:51;100030.78;;;-5.80;100.00
36600;BME280;35385;55.668;37.508;2023-02-17T04:13:52;100034.16;;;-5.74;100.00
36600;BME280;35385;55.668;37.508;2023-02-17T04:14:53;100011.72;;;-5.84;100.00
36600;BME280;35385;55.668;37.508;2023-02-17T04:15:53;100029.81;;;-5.73;100.00
36600;BME280;35385;55.668;37.508;2023-02-17T04:16:54;100028.91;;;-5.71;100.00
36600;BME280;35385;55.668;37.508;2023-02-17T04:17:55;100036.75;;;-5.72;100.00
36600;BME280;35385;55.668;37.508;2023-02-17T04:18:55;100019.41;;;-5.75;100.00
36600;BME280;35385;55.668;37.508;2023-02-17T04:19:56;100028.03;;;-5.70;100.00
36600;BME280;35385;55.668;37.508;2023-02-17T04:20:57;100008.25;;;-5.83;100.00
36600;BME280;35385;55.668;37.508;2023-02-17T04:21:58;100038.56;;;-5.77;100.00
36600;BME280;35385;55.668;37.508;2023-02-17T04:22:59;100029.06;;;-5.84;100.00
36600;BME280;35385;55.668;37.508;2023-02-17T04:24:00;100002.31;;;-5.92;100.00
36600;BME280;35385;55.668;37.508;2023-02-17T04:25:01;100022.00;;;-5.75;100.00
36600;BME280;35385;55.668;37.508;2023-02-17T04:26:05;100021.22;;;-5.78;100.00
36600;BME280;35385;55.668;37.508;2023-02-17T04:27:06;100026.44;;;-5.81;100.00
36600;BME280;35385;55.668;37.508;2023-02-17T04:28:08;100012.66;;;-5.89;100.00
36600;BME280;35385;55.668;37.508;2023-02-17T04:29:09;99963.53;;;-6.15;100.00
36600;BME280;35385;55.668;37.508;2023-02-17T04:30:11;100023.84;;;-5.80;100.00
36600;BME280;35385;55.668;37.508;2023-02-17T04:31:12;100021.25;;;-5.81;100.00
36600;BME280;35385;55.668;37.508;2023-02-17T04:32:12;100045.56;;;-5.85;100.00
36600;BME280;35385;55.668;37.508;2023-02-17T04:33:13;100023.13;;;-5.92;100.00
36600;BME280;35385;55.668;37.508;2023-02-17T04:34:14;100023.84;;;-5.83;100.00
36600;BME280;35385;55.668;37.508;2023-02-17T04:35:15;99978.09;;;-6.00;100.00
36600;BME280;35385;55.668;37.508;2023-02-17T04:36:15;99972.00;;;-5.96;100.00
36600;BME280;35385;55.668;37.508;2023-02-17T04:37:16;100022.84;;;-5.71;100.00
36600;BME280;35385;55.668;37.508;2023-02-17T04:38:16;100020.25;;;-5.70;100.00
36600;BME280;35385;55.668;37.508;2023-02-17T04:39:17;99972.16;;;-6.09;100.00
36600;BME280;35385;55.668;37.508;2023-02-17T04:40:18;100028.16;;;-5.80;100.00
36600;BME280;35385;55.668;37.508;2023-02-17T04:41:19;100024.69;;;-5.79;100.00
36600;BME280;35385;55.668;37.508;2023-02-17T04:42:20;100032.44;;;-5.76;100.00
36600;BME280;35385;55.668;37.508;2023-02-17T04:43:21;100027.34;;;-5.84;100.00
36600;BME280;35385;55.668;37.508;2023-02-17T04:44:22;100023.81;;;-5.78;100.00
36600;BME280;35385;55.668;37.508;2023-02-17T04:45:22;100029.91;;;-5.79;100.00
36600;BME280;35385;55.668;37.508;2023-02-17T04:46:23;99967.88;;;-6.16;100.00
36600;BME280;35385;55.668;37.508;2023-02-17T04:47:24;99981.72;;;-6.14;100.00
36600;BME280;35385;55.668;37.508;2023-02-17T04:48:25;100040.34;;;-5.82;100.00
36600;BME280;35385;55.668;37.508;2023-02-17T04:49:25;100044.63;;;-5.78;100.00
36600;BME280;35385;55.668;37.508;2023-02-17T04:50:26;100044.53;;;-5.69;100.00
36600;BME280;35385;55.668;37.508;2023-02-17T04:51:27;100050.63;;;-5.73;100.00
36600;BME280;35385;55.668;37.508;2023-02-17T04:52:27;100036.88;;;-5.84;100.00
36600;BME280;35385;55.668;37.508;2023-02-17T04:53:28;100035.22;;;-5.88;100.00
36600;BME280;35385;55.668;37.508;2023-02-17T04:54:28;100042.22;;;-5.95;100.00
36600;BME280;35385;55.668;37.508;2023-02-17T04:55:30;100025.00;;;-6.07;100.00
36600;BME280;35385;55.668;37.508;2023-02-17T04:56:30;100038.69;;;-5.89;100.00
36600;BME280;35385;55.668;37.508;2023-02-17T04:57:31;99974.94;;;-6.31;100.00
36600;BME280;35385;55.668;37.508;2023-02-17T04:58:31;99971.63;;;-6.44;100.00
36600;BME280;35385;55.668;37.508;2023-02-17T04:59:32;99975.09;;;-6.45;100.00
36600;BME280;35385;55.668;37.508;2023-02-17T05:00:32;100035.41;;;-6.07;100.00
36600;BME280;35385;55.668;37.508;2023-02-17T05:01:33;100026.81;;;-6.15;100.00
36600;BME280;35385;55.668;37.508;2023-02-17T05:02:34;100046.59;;;-6.00;100.00
36600;BME280;35385;55.668;37.508;2023-02-17T05:03:34;100030.13;;;-6.00;100.00
36600;BME280;35385;55.668;37.508;2023-02-17T05:04:35;100030.25;;;-6.13;100.00
36600;BME280;35385;55.668;37.508;2023-02-17T05:05:36;100036.19;;;-6.00;100.00
36600;BME280;35385;55.668;37.508;2023-02-17T05:06:36;100035.34;;;-6.00;100.00
36600;BME280;35385;55.668;37.508;2023-02-17T05:07:37;100045.72;;;-5.97;100.00
36600;BME280;35385;55.668;37.508;2023-02-17T05:08:37;99968.97;;;-6.38;100.00
36600;BME280;35385;55.668;37.508;2023-02-17T05:09:38;100037.03;;;-5.96;100.00
36600;BME280;35385;55.668;37.508;2023-02-17T05:10:40;100017.16;;;-6.05;100.00
36600;BME280;35385;55.668;37.508;2023-02-17T05:11:40;99969.63;;;-6.18;100.00
36600;BME280;35385;55.668;37.508;2023-02-17T05:12:41;100027.94;;;-5.62;100.00
36600;BME280;35385;55.668;37.508;2023-02-17T05:13:42;100027.06;;;-5.61;100.00
36600;BME280;35385;55.668;37.508;2023-02-17T05:14:42;100039.19;;;-5.58;100.00
36600;BME280;35385;55.668;37.508;2023-02-17T05:15:43;99959.06;;;-6.02;100.00
36600;BME280;35385;55.668;37.508;2023-02-17T05:16:44;100031.34;;;-5.54;100.00
36600;BME280;35385;55.668;37.508;2023-02-17T05:17:45;100030.31;;;-5.41;100.00
36600;BME280;35385;55.668;37.508;2023-02-17T05:18:45;100030.25;;;-5.35;100.00
36600;BME280;35385;55.668;37.508;2023-02-17T05:19:46;100002.56;;;-5.43;100.00
36600;BME280;35385;55.668;37.508;2023-02-17T05:20:46;99991.31;;;-5.47;100.00
36600;BME280;35385;55.668;37.508;2023-02-17T05:21:47;100031.88;;;-5.27;100.00
36600;BME280;35385;55.668;37.508;2023-02-17T05:22:47;100030.25;;;-5.35;100.00
36600;BME280;35385;55.668;37.508;2023-02-17T05:23:49;100031.03;;;-5.31;100.00
36600;BME280;35385;55.668;37.508;2023-02-17T05:24:50;100013.81;;;-5.41;100.00
36600;BME280;35385;55.668;37.508;2023-02-17T05:25:50;100018.13;;;-5.39;100.00
36600;BME280;35385;55.668;37.508;2023-02-17T05:26:51;99958.66;;;-5.71;100.00
36600;BME280;35385;55.668;37.508;2023-02-17T05:27:51;100036.16;;;-5.22;100.00
36600;BME280;35385;55.668;37.508;2023-02-17T05:28:52;100013.69;;;-5.30;100.00
36600;BME280;35385;55.668;37.508;2023-02-17T05:29:52;100022.25;;;-5.21;100.00
36600;BME280;35385;55.668;37.508;2023-02-17T05:30:53;100025.00;;;-5.33;100.00
36600;BME280;35385;55.668;37.508;2023-02-17T05:31:53;100035.31;;;-5.24;100.00
36600;BME280;35385;55.668;37.508;2023-02-17T05:32:54;100025.63;;;-5.16;100.00
36600;BME280;35385;55.668;37.508;2023-02-17T05:33:55;100023.84;;;-5.09;100.00
36600;BME280;35385;55.668;37.508;2023-02-17T05:34:56;100031.28;;;-4.85;100.00
36600;BME280;35385;55.668;37.508;2023-02-17T05:36:04;100019.28;;;-4.93;100.00
36600;BME280;35385;55.668;37.508;2023-02-17T05:37:05;100030.63;;;-4.99;100.00
36600;BME280;35385;55.668;37.508;2023-02-17T05:38:05;99964.97;;;-5.22;100.00
36600;BME280;35385;55.668;37.508;2023-02-17T05:39:06;99970.03;;;-5.12;100.00
36600;BME280;35385;55.668;37.508;2023-02-17T05:40:08;100011.09;;;-4.71;100.00